createdAt,value
2019-02-20T09:07:53.390Z,556.88
2019-02-20T09:08:53.400Z,585.00
2019-02-20T09:09:53.368Z,618.75
2019-02-20T09:10:53.360Z,646.88
2019-02-20T09:11:53.347Z,646.88
2019-02-20T09:12:53.334Z,646.88
2019-02-20T09:13:53.361Z,646.88
2019-02-20T09:14:53.320Z,630.00
2019-02-20T09:15:53.309Z,630.00
2019-02-20T09:16:53.293Z,618.75
2019-02-20T09:17:53.285Z,618.75
2019-02-20T09:18:53.300Z,618.75
2019-02-20T09:19:53.260Z,618.75
2019-02-20T09:20:53.256Z,613.12
2019-02-20T09:21:53.242Z,607.50
2019-02-20T09:22:53.238Z,601.88
2019-02-20T09:23:53.247Z,601.88
2019-02-20T09:24:53.216Z,607.50
2019-02-20T09:25:53.197Z,607.50
2019-02-20T09:26:53.184Z,601.88
2019-02-20T09:27:53.182Z,596.25
2019-02-20T09:28:53.195Z,590.62
2019-02-20T09:29:53.154Z,579.38
2019-02-20T09:30:53.147Z,573.75
2019-02-20T09:31:53.134Z,562.50
2019-02-20T09:32:53.122Z,556.88
2019-02-20T09:33:53.143Z,551.25
2019-02-20T09:34:53.153Z,545.62
2019-02-20T09:35:53.088Z,540.00
2019-02-20T09:36:53.075Z,534.38
2019-02-20T09:37:53.067Z,534.38
2019-02-20T09:38:53.079Z,540.00
2019-02-20T09:39:53.047Z,545.62
2019-02-20T09:40:53.037Z,556.88
2019-02-20T09:41:53.029Z,568.12
2019-02-20T09:42:53.000Z,573.75
2019-02-20T09:43:53.027Z,585.00
2019-02-20T09:44:52.995Z,590.62
2019-02-20T09:45:52.992Z,596.25
2019-02-20T09:46:52.979Z,607.50
2019-02-20T09:47:52.969Z,618.75
2019-02-20T09:48:52.974Z,613.12
2019-02-20T09:49:52.941Z,585.00
2019-02-20T09:50:52.931Z,585.00
2019-02-20T09:51:52.917Z,596.25
2019-02-20T09:52:53.052Z,601.88
2019-02-20T09:53:52.924Z,596.25
2019-02-20T09:54:52.884Z,596.25
2019-02-20T09:55:52.876Z,596.25
2019-02-20T09:56:52.870Z,601.88
2019-02-20T09:57:52.858Z,601.88
2019-02-20T09:58:52.868Z,601.88
2019-02-20T09:59:52.819Z,601.88
2019-02-20T10:00:52.830Z,596.25
2019-02-20T10:01:52.817Z,596.25
2019-02-20T10:02:52.800Z,596.25
2019-02-20T10:03:52.827Z,601.88
2019-02-20T10:04:52.800Z,601.88
2019-02-20T10:05:52.770Z,613.12
2019-02-20T10:06:52.763Z,624.38
2019-02-20T10:07:52.752Z,630.00
2019-02-20T10:08:52.768Z,635.62
2019-02-20T10:09:52.730Z,635.62
2019-02-20T10:10:52.719Z,635.62
2019-02-20T10:11:52.708Z,630.00
2019-02-20T10:12:52.697Z,630.00
2019-02-20T10:13:52.717Z,630.00
2019-02-20T10:14:52.677Z,630.00
2019-02-20T10:15:52.678Z,641.25
2019-02-20T10:16:53.982Z,635.62
2019-02-20T10:17:52.645Z,635.62
2019-02-20T10:18:52.656Z,641.25
2019-02-20T10:19:52.625Z,652.50
2019-02-20T10:20:52.612Z,658.12
2019-02-20T10:21:52.600Z,652.50
2019-02-20T10:22:52.593Z,663.75
2019-02-20T10:23:52.607Z,675.00
2019-02-20T10:24:52.570Z,680.62
2019-02-20T10:26:00.502Z,691.88
2019-02-20T10:27:00.467Z,703.12
2019-02-20T10:27:53.538Z,708.75
2019-02-20T10:28:54.088Z,697.50
2019-02-20T10:29:52.519Z,686.25
2019-02-20T10:30:52.503Z,669.38
2019-02-20T10:31:52.496Z,658.12
2019-02-20T10:32:52.493Z,663.75
2019-02-20T10:33:52.525Z,675.00
2019-02-20T10:34:52.475Z,675.00
2019-02-20T10:35:52.457Z,669.38
2019-02-20T10:36:52.444Z,669.38
2019-02-20T10:37:52.989Z,675.00
2019-02-20T10:38:52.456Z,680.62
2019-02-20T10:39:52.408Z,675.00
2019-02-20T10:40:52.421Z,680.62
2019-02-20T10:41:52.387Z,703.12
2019-02-20T10:42:52.377Z,720.00
2019-02-20T10:43:52.373Z,720.00
2019-02-20T10:44:52.401Z,714.38
2019-02-20T10:45:52.349Z,714.38
2019-02-20T10:46:52.337Z,708.75
2019-02-20T10:47:52.332Z,703.12
2019-02-20T10:48:52.316Z,691.88
2019-02-20T10:49:52.336Z,686.25
2019-02-20T10:50:52.297Z,680.62
2019-02-20T10:51:52.279Z,680.62
2019-02-20T10:52:52.320Z,691.88
2019-02-20T10:53:52.260Z,703.12
2019-02-20T10:54:57.825Z,708.75
2019-02-20T10:55:53.245Z,714.38
2019-02-20T10:56:52.231Z,720.00
2019-02-20T10:57:52.216Z,720.00
2019-02-20T10:58:52.208Z,725.62
2019-02-20T10:59:52.225Z,720.00
2019-02-20T11:00:52.183Z,714.38
2019-02-20T11:01:52.180Z,714.38
2019-02-20T11:02:52.210Z,720.00
2019-02-20T11:03:52.177Z,736.88
2019-02-20T11:04:52.168Z,748.12
2019-02-20T11:05:52.137Z,753.75
2019-02-20T11:06:52.121Z,759.38
2019-02-20T11:07:52.116Z,765.00
2019-02-20T11:08:52.100Z,753.75
2019-02-20T11:09:52.116Z,748.12
2019-02-20T11:10:52.082Z,742.50
2019-02-20T11:11:52.073Z,748.12
2019-02-20T11:12:52.059Z,770.62
2019-02-20T11:13:52.058Z,810.00
2019-02-20T11:14:52.079Z,849.38
2019-02-20T11:15:52.027Z,871.88
2019-02-20T11:16:52.018Z,888.75
2019-02-20T11:17:52.003Z,905.62
2019-02-20T11:18:51.999Z,922.50
2019-02-20T11:19:52.011Z,950.62
2019-02-20T11:20:51.971Z,978.75
2019-02-20T11:21:51.966Z,995.62
2019-02-20T11:22:51.949Z,1023.75
2019-02-20T11:23:51.940Z,1046.25
2019-02-20T11:24:53.807Z,1063.12
2019-02-20T11:25:51.923Z,1085.62
2019-02-20T11:26:55.021Z,1096.88
2019-02-20T11:27:51.900Z,1096.88
2019-02-20T11:28:51.888Z,1091.25
2019-02-20T11:29:51.907Z,1085.62
2019-02-20T11:30:51.878Z,1080.00
2019-02-20T11:31:51.864Z,1080.00
2019-02-20T11:32:51.845Z,1091.25
2019-02-20T11:33:51.837Z,1091.25
2019-02-20T11:34:51.847Z,1085.62
2019-02-20T11:35:51.820Z,1068.75
2019-02-20T11:36:51.802Z,1046.25
2019-02-20T11:37:51.794Z,1018.12
2019-02-20T11:38:51.780Z,995.62
2019-02-20T11:39:51.802Z,978.75
2019-02-20T11:40:51.760Z,984.38
2019-02-20T11:41:51.749Z,973.12
2019-02-20T11:42:51.739Z,950.62
2019-02-20T11:43:51.728Z,939.38
2019-02-20T11:44:51.740Z,928.12
2019-02-20T11:45:51.705Z,922.50
2019-02-20T11:46:51.718Z,916.88
2019-02-20T11:47:51.686Z,928.12
2019-02-20T11:48:51.676Z,950.62
2019-02-20T11:49:51.693Z,967.50
2019-02-20T11:50:51.652Z,973.12
2019-02-20T11:51:51.641Z,967.50
2019-02-20T11:52:51.634Z,961.88
2019-02-20T11:53:51.623Z,950.62
2019-02-20T11:54:51.641Z,928.12
2019-02-20T11:55:51.601Z,911.25
2019-02-20T11:56:51.588Z,905.62
2019-02-20T11:58:00.315Z,900.00
2019-02-20T11:58:52.572Z,905.62
2019-02-20T11:59:51.588Z,911.25
2019-02-20T12:00:51.550Z,911.25
2019-02-20T12:01:51.540Z,911.25
2019-02-20T12:02:51.584Z,916.88
2019-02-20T12:03:51.518Z,911.25
2019-02-20T12:04:51.533Z,905.62
2019-02-20T12:05:51.495Z,900.00
2019-02-20T12:06:51.484Z,894.38
2019-02-20T12:07:51.485Z,894.38
2019-02-20T12:08:51.461Z,894.38
2019-02-20T12:09:51.479Z,894.38
2019-02-20T12:10:51.445Z,894.38
2019-02-20T12:11:51.434Z,883.12
2019-02-20T12:12:51.418Z,877.50
2019-02-20T12:13:51.404Z,871.88
2019-02-20T12:14:51.422Z,866.25
2019-02-20T12:15:51.385Z,877.50
2019-02-20T12:16:51.376Z,905.62
2019-02-20T12:17:51.363Z,911.25
2019-02-20T12:18:51.357Z,922.50
2019-02-20T12:19:51.343Z,928.12
2019-02-20T12:20:51.360Z,928.12
2019-02-20T12:21:51.327Z,922.50
2019-02-20T12:22:51.311Z,922.50
2019-02-20T12:23:51.323Z,922.50
2019-02-20T12:24:51.292Z,928.12
2019-02-20T12:25:51.304Z,939.38
2019-02-20T12:26:51.281Z,956.25
2019-02-20T12:27:51.259Z,967.50
2019-02-20T12:28:51.252Z,978.75
2019-02-20T12:29:51.241Z,995.62
2019-02-20T12:30:51.262Z,1012.50
2019-02-20T12:31:52.724Z,1035.00
2019-02-20T12:32:51.219Z,1057.50
2019-02-20T12:33:52.326Z,1068.75
2019-02-20T12:34:51.188Z,1085.62
2019-02-20T12:35:51.205Z,1085.62
2019-02-20T12:36:51.168Z,1102.50
2019-02-20T12:37:51.141Z,1085.62
2019-02-20T12:38:51.142Z,1012.50
2019-02-20T12:39:51.130Z,905.62
2019-02-20T12:40:51.150Z,815.62
2019-02-20T12:41:51.108Z,770.62
2019-02-20T12:42:51.105Z,725.62
2019-02-20T12:43:51.089Z,703.12
2019-02-20T12:44:51.077Z,753.75
2019-02-20T12:45:51.089Z,793.12
2019-02-20T12:46:51.056Z,843.75
2019-02-20T12:47:51.044Z,905.62
2019-02-20T12:48:51.037Z,888.75
2019-02-20T12:49:51.552Z,843.75
2019-02-20T12:50:51.039Z,815.62
2019-02-20T12:51:51.056Z,810.00
2019-02-20T12:52:50.988Z,832.50
2019-02-20T12:53:50.980Z,877.50
2019-02-20T12:54:50.984Z,849.38
2019-02-20T12:55:51.010Z,849.38
2019-02-20T12:56:50.961Z,860.62
2019-02-20T12:57:50.937Z,793.12
2019-02-20T12:58:50.923Z,826.88
2019-02-20T12:59:50.916Z,843.75
2019-02-20T13:00:50.929Z,826.88
2019-02-20T13:01:50.890Z,860.62
2019-02-20T13:02:50.919Z,911.25
2019-02-20T13:03:50.868Z,871.88
2019-02-20T13:04:50.860Z,810.00
2019-02-20T13:05:50.875Z,748.12
2019-02-20T13:06:59.210Z,720.00
2019-02-20T13:07:51.827Z,736.88
2019-02-20T13:08:50.812Z,742.50
2019-02-20T13:09:50.800Z,742.50
2019-02-20T13:10:50.830Z,720.00
2019-02-20T13:11:50.782Z,646.88
2019-02-20T13:12:50.768Z,568.12
2019-02-20T13:13:50.761Z,562.50
2019-02-20T13:14:50.757Z,635.62
2019-02-20T13:15:50.765Z,703.12
2019-02-20T13:16:50.730Z,748.12
2019-02-20T13:17:50.716Z,742.50
2019-02-20T13:18:50.704Z,697.50
2019-02-20T13:19:50.697Z,635.62
2019-02-20T13:20:50.709Z,596.25
2019-02-20T13:21:50.675Z,613.12
2019-02-20T13:22:50.665Z,686.25
2019-02-20T13:23:50.656Z,663.75
2019-02-20T13:24:50.647Z,765.00
2019-02-20T13:25:53.381Z,916.88
2019-02-20T13:27:08.618Z,995.62
2019-02-20T13:27:50.614Z,860.62
2019-02-20T13:28:50.595Z,821.25
2019-02-20T13:29:50.591Z,871.88
2019-02-20T13:30:50.604Z,911.25
2019-02-20T13:31:50.566Z,1012.50
2019-02-20T13:32:51.082Z,1153.12
2019-02-20T13:33:50.547Z,905.62
2019-02-20T13:34:50.533Z,832.50
2019-02-20T13:35:50.593Z,855.00
2019-02-20T13:36:50.517Z,770.62
2019-02-20T13:37:50.500Z,736.88
2019-02-20T13:38:50.492Z,680.62
2019-02-20T13:39:52.141Z,613.12
2019-02-20T13:40:50.497Z,556.88
2019-02-20T13:41:50.458Z,528.75
2019-02-20T13:42:50.445Z,545.62
2019-02-20T13:43:50.439Z,556.88
2019-02-20T13:44:50.427Z,585.00
2019-02-20T13:45:50.441Z,590.62
2019-02-20T13:46:50.404Z,601.88
2019-02-20T13:47:50.399Z,545.62
2019-02-20T13:48:50.380Z,528.75
2019-02-20T13:49:50.372Z,556.88
2019-02-20T13:50:50.392Z,540.00
2019-02-20T13:51:50.349Z,545.62
2019-02-20T13:52:52.644Z,562.50
2019-02-20T13:53:50.325Z,573.75
2019-02-20T13:54:50.320Z,534.38
2019-02-20T13:55:50.384Z,528.75
2019-02-20T13:56:50.295Z,495.00
2019-02-20T13:57:50.288Z,483.75
2019-02-20T13:58:50.275Z,495.00
2019-02-20T13:59:50.262Z,461.25
2019-02-20T14:00:50.256Z,455.62
2019-02-20T14:01:50.268Z,528.75
2019-02-20T14:02:50.230Z,663.75
2019-02-20T14:03:50.216Z,759.38
2019-02-20T14:04:50.211Z,860.62
2019-02-20T14:05:50.197Z,866.25
2019-02-20T14:06:50.215Z,826.88
2019-02-20T14:07:50.177Z,798.75
2019-02-20T14:08:50.166Z,810.00
2019-02-20T14:09:50.153Z,849.38
2019-02-20T14:10:50.134Z,832.50
2019-02-20T14:11:50.159Z,866.25
2019-02-20T14:12:50.125Z,849.38
2019-02-20T14:13:50.129Z,849.38
2019-02-20T14:14:50.104Z,849.38
2019-02-20T14:15:50.389Z,838.12
2019-02-20T14:16:50.110Z,838.12
2019-02-20T14:17:50.071Z,849.38
2019-02-20T14:18:51.321Z,843.75
2019-02-20T14:19:50.047Z,826.88
2019-02-20T14:20:50.037Z,810.00
2019-02-20T14:21:50.056Z,765.00
2019-02-20T14:22:50.018Z,675.00
2019-02-20T14:23:50.002Z,635.62
2019-02-20T14:24:49.995Z,596.25
2019-02-20T14:25:49.986Z,568.12
2019-02-20T14:26:49.991Z,540.00
2019-02-20T14:27:49.962Z,500.62
2019-02-20T14:28:49.952Z,500.62
2019-02-20T14:29:49.955Z,506.25
2019-02-20T14:30:49.929Z,511.88
2019-02-20T14:31:49.965Z,534.38
2019-02-20T14:32:49.912Z,534.38
2019-02-20T14:33:49.898Z,528.75
2019-02-20T14:34:49.893Z,517.50
2019-02-20T14:35:49.879Z,500.62
2019-02-20T14:36:49.892Z,506.25
2019-02-20T14:37:49.861Z,511.88
2019-02-20T14:38:49.852Z,500.62
2019-02-20T14:39:49.834Z,461.25
2019-02-20T14:40:49.833Z,450.00
2019-02-20T14:41:49.837Z,523.12
2019-02-20T14:42:49.808Z,511.88
2019-02-20T14:43:49.795Z,528.75
2019-02-20T14:44:49.781Z,534.38
2019-02-20T14:45:49.773Z,511.88
2019-02-20T14:46:49.789Z,506.25
2019-02-20T14:47:49.749Z,500.62
2019-02-20T14:48:49.736Z,478.12
2019-02-20T14:49:49.731Z,500.62
2019-02-20T14:50:49.721Z,483.75
2019-02-20T14:51:49.732Z,489.38
2019-02-20T14:52:49.697Z,500.62
2019-02-20T14:53:49.685Z,506.25
2019-02-20T14:54:49.679Z,517.50
2019-02-20T14:55:49.669Z,523.12
2019-02-20T14:56:49.683Z,517.50
2019-02-20T14:57:51.014Z,489.38
2019-02-20T14:58:49.635Z,455.62
2019-02-20T14:59:49.625Z,450.00
2019-02-20T15:00:49.616Z,466.88
2019-02-20T15:01:49.629Z,483.75
2019-02-20T15:02:49.593Z,500.62
2019-02-20T15:03:49.582Z,495.00
2019-02-20T15:04:49.573Z,483.75
2019-02-20T15:05:49.562Z,466.88
2019-02-20T15:06:49.585Z,444.38
2019-02-20T15:08:02.131Z,427.50
2019-02-20T15:08:49.529Z,410.62
2019-02-20T15:09:49.526Z,399.38
2019-02-20T15:10:49.517Z,393.75
2019-02-20T15:11:49.515Z,399.38
2019-02-20T15:12:49.485Z,399.38
2019-02-20T15:13:49.475Z,393.75
2019-02-20T15:14:49.464Z,382.50
2019-02-20T15:15:49.457Z,365.62
2019-02-20T15:16:49.472Z,354.38
2019-02-20T15:17:49.433Z,343.12
2019-02-20T15:18:49.439Z,331.88
2019-02-20T15:19:49.414Z,326.25
2019-02-20T15:20:49.402Z,320.62
2019-02-20T15:21:49.464Z,309.38
2019-02-20T15:22:49.382Z,298.12
2019-02-20T15:23:49.371Z,286.88
2019-02-20T15:24:49.357Z,281.25
2019-02-20T15:25:49.349Z,281.25
2019-02-20T15:26:49.398Z,275.62
2019-02-20T15:27:49.336Z,275.62
2019-02-20T15:28:49.315Z,270.00
2019-02-20T15:29:49.306Z,270.00
2019-02-20T15:30:49.308Z,264.38
2019-02-20T15:31:49.331Z,253.12
2019-02-20T15:32:50.888Z,247.50
2019-02-20T15:33:49.317Z,241.88
2019-02-20T15:34:49.254Z,236.25
2019-02-20T15:35:49.284Z,230.62
2019-02-20T15:36:49.248Z,225.00
2019-02-20T15:37:49.292Z,219.38
2019-02-20T15:38:49.213Z,225.00
2019-02-20T15:39:49.235Z,225.00
2019-02-20T15:40:49.189Z,225.00
2019-02-20T15:41:49.179Z,219.38
2019-02-20T15:42:49.193Z,219.38
2019-02-20T15:43:49.154Z,219.38
2019-02-20T15:44:49.148Z,219.38
2019-02-20T15:45:49.143Z,219.38
2019-02-20T15:46:49.449Z,213.75
2019-02-20T15:47:49.134Z,208.12
2019-02-20T15:48:49.104Z,202.50
2019-02-20T15:49:49.092Z,202.50
2019-02-20T15:50:49.092Z,202.50
2019-02-20T15:51:49.101Z,202.50
2019-02-20T15:52:49.083Z,196.88
2019-02-20T15:53:49.049Z,191.25
2019-02-20T15:54:49.027Z,185.62
2019-02-20T15:55:49.065Z,185.62
2019-02-20T15:56:49.022Z,180.00
2019-02-20T15:57:49.043Z,185.62
2019-02-20T15:58:49.000Z,185.62
2019-02-20T15:59:48.992Z,185.62
2019-02-20T16:00:48.974Z,185.62
2019-02-20T16:01:48.969Z,185.62
2019-02-20T16:02:48.985Z,180.00
2019-02-20T16:03:48.941Z,174.38
2019-02-20T16:04:48.930Z,174.38
2019-02-20T16:05:48.927Z,163.12
2019-02-20T16:06:48.909Z,151.88
2019-02-20T16:07:48.942Z,151.88
2019-02-20T16:08:48.889Z,146.25
2019-02-20T16:09:48.878Z,140.62
2019-02-20T16:10:48.879Z,140.62
2019-02-20T16:11:48.858Z,135.00
2019-02-20T16:12:48.876Z,129.38
2019-02-20T16:13:50.137Z,129.38
2019-02-20T16:14:48.826Z,123.75
2019-02-20T16:15:48.817Z,118.12
2019-02-20T16:16:48.804Z,112.50
2019-02-20T16:17:48.821Z,112.50
2019-02-20T16:18:48.812Z,106.88
2019-02-20T16:19:48.779Z,101.25
2019-02-20T16:20:48.786Z,95.62
2019-02-20T16:21:48.754Z,95.62
2019-02-20T16:22:48.766Z,90.00
2019-02-20T16:23:48.748Z,84.38
2019-02-20T16:24:48.727Z,84.38
2019-02-20T16:25:48.711Z,84.38
2019-02-20T16:26:48.698Z,78.75
2019-02-20T16:27:48.732Z,73.12
2019-02-20T16:28:48.689Z,73.12
2019-02-20T16:29:48.674Z,73.12
2019-02-20T16:30:48.654Z,73.12
2019-02-20T16:31:48.658Z,67.50
2019-02-20T16:32:48.672Z,67.50
2019-02-20T16:33:48.641Z,61.88
2019-02-20T16:34:48.620Z,56.25
2019-02-20T16:35:48.609Z,56.25
2019-02-20T16:36:49.205Z,50.62
2019-02-20T16:37:48.603Z,50.62
2019-02-20T16:38:48.572Z,45.00
2019-02-20T16:39:48.561Z,45.00
2019-02-20T16:40:48.554Z,39.38
2019-02-20T16:41:48.537Z,39.38
2019-02-20T16:42:48.549Z,33.75
2019-02-20T16:43:48.795Z,33.75
2019-02-20T16:44:48.504Z,28.12
2019-02-20T16:45:48.558Z,28.12
2019-02-20T16:46:48.489Z,22.50
2019-02-20T16:47:48.493Z,22.50
2019-02-20T16:48:48.488Z,22.50
2019-02-20T16:49:48.450Z,22.50
2019-02-20T16:50:48.436Z,16.88
2019-02-20T16:51:48.456Z,16.88
2019-02-20T16:52:48.445Z,16.88
2019-02-20T16:53:48.410Z,16.88
2019-02-20T16:54:48.387Z,11.25
2019-02-20T16:55:48.386Z,11.25
2019-02-20T16:56:48.376Z,11.25
2019-02-20T16:57:56.268Z,11.25
2019-02-20T16:58:49.360Z,11.25
2019-02-20T16:59:48.346Z,11.25
2019-02-20T17:00:48.335Z,5.62
2019-02-20T17:01:48.321Z,5.62
2019-02-20T17:02:48.337Z,5.62
2019-02-20T17:03:48.344Z,5.62
2019-02-20T17:04:48.290Z,5.62
2019-02-20T17:05:48.639Z,0.00
2019-02-20T17:06:48.269Z,0.00
2019-02-20T17:07:48.299Z,0.00
2019-02-20T17:08:48.268Z,0.00
2019-02-20T17:09:48.237Z,0.00
2019-02-20T17:10:48.232Z,0.00
2019-02-20T17:11:48.223Z,0.00
2019-02-20T17:12:48.210Z,0.00
2019-02-20T17:13:48.237Z,0.00
2019-02-20T17:14:48.192Z,0.00
2019-02-20T17:15:48.178Z,0.00
2019-02-20T17:16:48.169Z,0.00
2019-02-20T17:17:48.181Z,0.00
2019-02-20T17:18:48.177Z,0.00
2019-02-20T17:19:48.139Z,0.00
2019-02-20T17:20:48.138Z,0.00
2019-02-20T17:21:48.119Z,0.00
2019-02-20T17:22:48.106Z,0.00
2019-02-20T17:23:48.129Z,0.00
2019-02-20T17:24:48.087Z,0.00
2019-02-20T17:25:48.072Z,0.00
2019-02-20T17:26:48.069Z,0.00
2019-02-20T17:27:48.057Z,0.00
2019-02-20T17:28:48.074Z,0.00
2019-02-20T17:29:48.049Z,0.00
2019-02-20T17:30:48.025Z,0.00
2019-02-20T17:31:48.010Z,0.00
2019-02-20T17:32:48.005Z,0.00
2019-02-20T17:33:48.064Z,0.00
2019-02-20T17:34:47.986Z,0.00
2019-02-20T17:35:47.969Z,0.00
2019-02-20T17:36:47.959Z,0.00
2019-02-20T17:37:47.948Z,0.00
2019-02-20T17:38:47.957Z,0.00
2019-02-20T17:39:47.921Z,0.00
2019-02-20T17:40:47.920Z,0.00
2019-02-20T17:41:47.906Z,0.00
2019-02-20T17:42:47.889Z,0.00
2019-02-20T17:43:47.950Z,0.00
2019-02-20T17:44:47.872Z,0.00
2019-02-20T17:45:47.861Z,0.00
2019-02-20T17:46:47.866Z,0.00
2019-02-20T17:47:47.847Z,0.00
2019-02-20T17:48:47.935Z,0.00
2019-02-20T17:49:47.819Z,0.00
2019-02-20T17:50:47.810Z,0.00
2019-02-20T17:51:47.802Z,0.00
2019-02-20T17:52:47.787Z,0.00
2019-02-20T17:53:47.816Z,0.00
2019-02-20T17:54:47.761Z,0.00
2019-02-20T17:55:47.757Z,0.00
2019-02-20T17:56:47.748Z,0.00
2019-02-20T17:57:47.733Z,0.00
2019-02-20T17:58:47.758Z,0.00
2019-02-20T17:59:47.709Z,0.00
2019-02-20T18:00:47.710Z,0.00
2019-02-20T18:01:47.693Z,0.00
2019-02-20T18:02:47.684Z,0.00
2019-02-20T18:03:47.714Z,0.00
2019-02-20T18:04:47.668Z,0.00
2019-02-20T18:05:47.644Z,0.00
2019-02-20T18:06:47.639Z,0.00
2019-02-20T18:07:51.498Z,0.00
2019-02-20T18:08:47.641Z,0.00
2019-02-20T18:09:47.610Z,0.00
2019-02-20T18:10:47.598Z,0.00
2019-02-20T18:11:47.586Z,0.00
2019-02-20T18:12:47.571Z,0.00
2019-02-20T18:13:47.589Z,0.00
2019-02-20T18:14:47.562Z,0.00
2019-02-20T18:15:47.540Z,0.00
2019-02-20T18:16:47.531Z,0.00
2019-02-20T18:17:47.515Z,0.00
2019-02-20T18:18:47.550Z,0.00
2019-02-20T18:19:47.499Z,0.00
2019-02-20T18:20:47.492Z,0.00
2019-02-20T18:21:47.478Z,0.00
2019-02-20T18:22:47.467Z,0.00
2019-02-20T18:23:47.479Z,0.00
2019-02-20T18:24:47.450Z,0.00
2019-02-20T18:25:47.439Z,0.00
2019-02-20T18:26:47.435Z,0.00
2019-02-20T18:27:47.413Z,0.00
2019-02-20T18:28:47.436Z,0.00
2019-02-20T18:29:47.398Z,0.00
2019-02-20T18:30:47.382Z,0.00
2019-02-20T18:31:47.409Z,0.00
2019-02-20T18:32:47.365Z,0.00
2019-02-20T18:33:47.386Z,0.00
2019-02-20T18:34:47.340Z,0.00
2019-02-20T18:35:47.331Z,0.00
2019-02-20T18:36:47.336Z,0.00
2019-02-20T18:37:47.382Z,0.00
2019-02-20T18:38:47.340Z,0.00
2019-02-20T18:39:47.291Z,0.00
2019-02-20T18:40:47.284Z,0.00
2019-02-20T18:41:47.278Z,0.00
2019-02-20T18:42:47.253Z,0.00
2019-02-20T18:43:47.279Z,0.00
2019-02-20T18:44:47.234Z,0.00
2019-02-20T18:45:47.217Z,0.00
2019-02-20T18:46:47.216Z,0.00
2019-02-20T18:47:47.200Z,0.00
2019-02-20T18:48:47.248Z,0.00
2019-02-20T18:49:49.377Z,0.00
2019-02-20T18:50:47.180Z,0.00
2019-02-20T18:51:47.169Z,0.00
2019-02-20T18:52:47.149Z,0.00
2019-02-20T18:53:47.137Z,0.00
2019-02-20T18:54:47.177Z,0.00
2019-02-20T18:55:47.127Z,0.00
2019-02-20T18:56:47.101Z,0.00
2019-02-20T18:57:47.097Z,0.00
2019-02-20T18:58:47.093Z,0.00
2019-02-20T18:59:47.096Z,0.00
2019-02-20T19:00:47.114Z,0.00
2019-02-20T19:01:47.060Z,0.00
2019-02-20T19:02:47.042Z,0.00
2019-02-20T19:03:47.047Z,0.00
2019-02-20T19:04:47.049Z,0.00
2019-02-20T19:05:47.042Z,0.00
2019-02-20T19:06:47.009Z,0.00
2019-02-20T19:07:46.983Z,0.00
2019-02-20T19:08:47.003Z,0.00
2019-02-20T19:09:47.103Z,0.00
2019-02-20T19:10:46.962Z,0.00
2019-02-20T19:11:46.947Z,0.00
2019-02-20T19:12:46.952Z,0.00
2019-02-20T19:13:46.943Z,0.00
2019-02-20T19:14:46.970Z,0.00
2019-02-20T19:15:46.923Z,0.00
2019-02-20T19:16:46.904Z,0.00
2019-02-20T19:17:46.910Z,0.00
2019-02-20T19:18:46.902Z,0.00
2019-02-20T19:19:46.928Z,0.00
2019-02-20T19:20:46.873Z,0.00
2019-02-20T19:21:46.848Z,0.00
2019-02-20T19:22:46.840Z,0.00
2019-02-20T19:23:46.823Z,0.00
2019-02-20T19:24:46.834Z,0.00
2019-02-20T19:25:46.803Z,0.00
2019-02-20T19:26:46.791Z,0.00
2019-02-20T19:27:46.781Z,0.00
2019-02-20T19:28:46.799Z,0.00
2019-02-20T19:29:46.779Z,0.00
2019-02-20T19:30:46.772Z,0.00
2019-02-20T19:31:46.741Z,0.00
2019-02-20T19:32:46.741Z,0.00
2019-02-20T19:33:46.728Z,0.00
2019-02-20T19:34:46.765Z,0.00
2019-02-20T19:35:46.716Z,0.00
2019-02-20T19:36:46.695Z,0.00
2019-02-20T19:37:46.699Z,0.00
2019-02-20T19:38:46.670Z,0.00
2019-02-20T19:39:46.689Z,0.00
2019-02-20T19:40:46.634Z,0.00
2019-02-20T19:41:46.652Z,0.00
2019-02-20T19:42:46.619Z,0.00
2019-02-20T19:43:46.605Z,0.00
2019-02-20T19:44:46.654Z,0.00
2019-02-20T19:45:46.607Z,0.00
2019-02-20T19:46:46.596Z,0.00
2019-02-20T19:47:46.582Z,0.00
2019-02-20T19:48:46.567Z,0.00
2019-02-20T19:49:46.573Z,0.00
2019-02-20T19:50:46.554Z,0.00
2019-02-20T19:51:46.517Z,0.00
2019-02-20T19:52:46.529Z,0.00
2019-02-20T19:53:46.520Z,0.00
2019-02-20T19:54:46.515Z,0.00
2019-02-20T19:55:46.510Z,0.00
2019-02-20T19:56:46.464Z,0.00
2019-02-20T19:57:46.478Z,0.00
2019-02-20T19:58:54.441Z,0.00
2019-02-20T19:59:47.486Z,0.00
2019-02-20T20:00:46.505Z,0.00
2019-02-20T20:01:46.409Z,0.00
2019-02-20T20:02:46.415Z,0.00
2019-02-20T20:03:46.396Z,0.00
2019-02-20T20:04:46.406Z,0.00
2019-02-20T20:05:46.380Z,0.00
2019-02-20T20:06:46.373Z,0.00
2019-02-20T20:07:48.849Z,0.00
2019-02-20T20:08:46.338Z,0.00
2019-02-20T20:09:46.350Z,0.00
2019-02-20T20:10:46.319Z,0.00
2019-02-20T20:11:46.331Z,0.00
2019-02-20T20:12:47.513Z,0.00
2019-02-20T20:13:46.286Z,0.00
2019-02-20T20:14:46.371Z,0.00
2019-02-20T20:15:46.272Z,0.00
2019-02-20T20:16:46.281Z,0.00
2019-02-20T20:17:46.253Z,0.00
2019-02-20T20:18:46.242Z,0.00
2019-02-20T20:19:46.270Z,0.00
2019-02-20T20:20:46.218Z,0.00
2019-02-20T20:21:46.199Z,0.00
2019-02-20T20:22:46.228Z,0.00
2019-02-20T20:23:46.186Z,0.00
2019-02-20T20:24:46.228Z,0.00
2019-02-20T20:25:46.172Z,0.00
2019-02-20T20:26:47.308Z,0.00
2019-02-20T20:27:46.139Z,0.00
2019-02-20T20:28:46.139Z,0.00
2019-02-20T20:29:46.127Z,0.00
2019-02-20T20:30:46.140Z,0.00
2019-02-20T20:31:46.128Z,0.00
2019-02-20T20:32:53.865Z,0.00
2019-02-20T20:33:47.114Z,0.00
2019-02-20T20:34:46.071Z,0.00
2019-02-20T20:35:46.078Z,0.00
2019-02-20T20:36:46.045Z,0.00
2019-02-20T20:37:46.216Z,0.00
2019-02-20T20:38:46.041Z,0.00
2019-02-20T20:39:46.016Z,0.00
2019-02-20T20:40:46.024Z,0.00
2019-02-20T20:41:45.992Z,0.00
2019-02-20T20:42:45.979Z,0.00
2019-02-20T20:43:45.963Z,0.00
2019-02-20T20:44:45.958Z,0.00
2019-02-20T20:45:45.976Z,0.00
2019-02-20T20:46:45.949Z,0.00
2019-02-20T20:47:46.032Z,0.00
2019-02-20T20:48:45.912Z,0.00
2019-02-20T20:49:45.905Z,0.00
2019-02-20T20:50:45.914Z,0.00
2019-02-20T20:51:45.886Z,0.00
2019-02-20T20:52:45.874Z,0.00
2019-02-20T20:53:45.859Z,0.00
2019-02-20T20:54:45.845Z,0.00
2019-02-20T20:55:45.868Z,0.00
2019-02-20T20:56:45.828Z,0.00
2019-02-20T20:57:45.818Z,0.00
2019-02-20T20:58:45.802Z,0.00
2019-02-20T20:59:45.794Z,0.00
2019-02-20T21:00:45.810Z,0.00
2019-02-20T21:01:45.785Z,0.00
2019-02-20T21:02:45.761Z,0.00
2019-02-20T21:03:45.789Z,0.00
2019-02-20T21:04:45.746Z,0.00
2019-02-20T21:05:45.762Z,0.00
2019-02-20T21:06:45.721Z,0.00
2019-02-20T21:07:45.847Z,0.00
2019-02-20T21:08:45.700Z,0.00
2019-02-20T21:09:45.686Z,0.00
2019-02-20T21:10:46.609Z,0.00
2019-02-20T21:11:45.662Z,0.00
2019-02-20T21:12:45.654Z,0.00
2019-02-20T21:13:45.652Z,0.00
2019-02-20T21:14:45.639Z,0.00
2019-02-20T21:15:45.653Z,0.00
2019-02-20T21:16:45.609Z,0.00
2019-02-20T21:17:45.602Z,0.00
2019-02-20T21:18:45.592Z,0.00
2019-02-20T21:19:45.590Z,0.00
2019-02-20T21:20:45.633Z,0.00
2019-02-20T21:21:45.564Z,0.00
2019-02-20T21:22:45.565Z,0.00
2019-02-20T21:23:45.539Z,0.00
2019-02-20T21:24:45.531Z,0.00
2019-02-20T21:25:45.544Z,0.00
2019-02-20T21:26:45.516Z,0.00
2019-02-20T21:27:45.495Z,0.00
2019-02-20T21:28:45.485Z,0.00
2019-02-20T21:29:47.289Z,0.00
2019-02-20T21:30:45.490Z,0.00
2019-02-20T21:31:45.463Z,0.00
2019-02-20T21:32:45.462Z,0.00
2019-02-20T21:33:45.445Z,0.00
2019-02-20T21:34:45.423Z,0.00
2019-02-20T21:35:45.438Z,0.00
2019-02-20T21:36:45.401Z,0.00
2019-02-20T21:37:45.395Z,0.00
2019-02-20T21:38:45.376Z,0.00
2019-02-20T21:39:45.369Z,0.00
2019-02-20T21:40:45.380Z,0.00
2019-02-20T21:41:45.375Z,0.00
2019-02-20T21:42:45.342Z,0.00
2019-02-20T21:43:45.334Z,0.00
2019-02-20T21:44:45.313Z,0.00
2019-02-20T21:45:45.346Z,0.00
2019-02-20T21:46:45.360Z,0.00
2019-02-20T21:47:45.281Z,0.00
2019-02-20T21:48:45.278Z,0.00
2019-02-20T21:49:45.271Z,0.00
2019-02-20T21:50:45.282Z,0.00
2019-02-20T21:51:45.241Z,0.00
2019-02-20T21:52:45.233Z,0.00
2019-02-20T21:53:45.222Z,0.00
2019-02-20T21:54:45.217Z,0.00